Colinas de Hatillo, Puerto Rico
Current Conditions -  °F | °C
As of 10:50 AM on Friday 19 Dec 2014 (Local Time) from TJBQ Reporting Station
Scattered Clouds Scattered Clouds  
Wind Chill: 81°   Ceiling: Unl
Heat Index: 83°   Visibility: 10mi
Dew Point: 68°   Wind: 18mph
Humidity: 65%   Direction: 100°E
Pressure: 30.03"   Gusts: 23mph
Location:  18.4851°N, 66.8257°W
Report Text: TJBQ 191450Z 10016G20KT 10SM SCT029 27/20 A3003 RMK RWY08 ATIS M
Loading
Personal Weather Stations






























Interactive Weather Map New forecast layout! Learn more

10-Day Weather Forecast

Advertisements
Track Severe Weather on mobile